createdAt,value
2022-09-28T00:00:47.991Z,98637.50
2022-09-28T00:05:49.394Z,98629.78
2022-09-28T00:10:57.469Z,98623.13
2022-09-28T00:16:02.275Z,98608.84
2022-09-28T00:21:08.743Z,98587.78
2022-09-28T00:26:10.126Z,98576.78
2022-09-28T00:31:11.635Z,98588.59
2022-09-28T00:36:13.096Z,98585.03
2022-09-28T00:41:15.350Z,98568.13
2022-09-28T00:46:19.903Z,98556.03
2022-09-28T00:51:22.098Z,98553.22
2022-09-28T00:56:26.844Z,98535.09
2022-09-28T01:01:28.609Z,98518.41
2022-09-28T01:06:33.330Z,98516.41
2022-09-28T01:11:37.757Z,98499.13
2022-09-28T01:17:10.464Z,98493.91
2022-09-28T01:22:26.337Z,98481.06
2022-09-28T01:27:38.088Z,98472.34
2022-09-28T01:32:54.743Z,98468.78
2022-09-28T01:38:02.932Z,98457.19
2022-09-28T01:43:07.995Z,98463.59
2022-09-28T01:48:13.012Z,98442.38
2022-09-28T01:53:37.642Z,98447.72
2022-09-28T01:58:50.729Z,98434.97
2022-09-28T02:03:59.113Z,98439.34
2022-09-28T02:09:09.746Z,98437.63
2022-09-28T02:14:12.475Z,98433.34
2022-09-28T02:19:23.599Z,98460.44
2022-09-28T02:24:40.026Z,98463.69
2022-09-28T02:29:41.799Z,98444.13
2022-09-28T02:34:43.280Z,98464.72
2022-09-28T02:39:47.387Z,98465.72
2022-09-28T02:45:04.438Z,98451.53
2022-09-28T02:50:24.275Z,98457.97
2022-09-28T02:55:42.504Z,98453.75
2022-09-28T03:00:53.084Z,98459.31
2022-09-28T03:06:04.223Z,98463.88
2022-09-28T03:11:13.882Z,98450.44
2022-09-28T03:16:18.058Z,98450.09
2022-09-28T03:21:19.635Z,98465.84
2022-09-28T03:26:21.125Z,98459.59
2022-09-28T03:31:23.048Z,98467.25
2022-09-28T03:36:24.627Z,98473.25
2022-09-28T03:41:27.928Z,98462.72
2022-09-28T03:46:29.387Z,98457.09
2022-09-28T03:51:30.899Z,98453.00
2022-09-28T03:56:32.361Z,98451.47
2022-09-28T04:01:33.886Z,98450.84
2022-09-28T04:06:35.302Z,98443.47
2022-09-28T04:11:53.199Z,98452.94
2022-09-28T04:16:58.307Z,98455.41
2022-09-28T04:22:01.482Z,98460.28
2022-09-28T04:27:21.612Z,98454.38
2022-09-28T04:32:23.271Z,98459.19
2022-09-28T04:37:24.725Z,98467.09
2022-09-28T04:42:26.206Z,98469.38
2022-09-28T04:47:29.730Z,98472.00
2022-09-28T04:52:31.251Z,98470.44
2022-09-28T04:57:35.755Z,98467.09
2022-09-28T05:02:37.350Z,98457.09
2022-09-28T05:07:39.028Z,98468.72
2022-09-28T05:12:43.467Z,98476.88
2022-09-28T05:17:44.918Z,98490.88
2022-09-28T05:22:46.388Z,98486.41
2022-09-28T05:27:47.936Z,98498.31
2022-09-28T05:32:51.075Z,98500.34
2022-09-28T05:37:52.725Z,98503.06
2022-09-28T05:42:59.034Z,98504.59
2022-09-28T05:48:00.673Z,98508.69
2022-09-28T05:53:05.778Z,98513.59
2022-09-28T05:58:07.670Z,98500.75
2022-09-28T06:03:12.586Z,98504.69
2022-09-28T06:08:14.021Z,98514.66
2022-09-28T06:13:15.499Z,98514.47
2022-09-28T06:18:17.099Z,98520.84
2022-09-28T06:23:18.648Z,98521.09
2022-09-28T06:28:20.144Z,98527.09
2022-09-28T06:33:22.026Z,98535.91
2022-09-28T06:38:23.500Z,98529.25
2022-09-28T06:43:25.296Z,98543.69
2022-09-28T06:48:27.164Z,98547.28
2022-09-28T06:53:29.659Z,98541.19
2022-09-28T06:58:32.339Z,98546.19
2022-09-28T07:03:33.872Z,98559.88
2022-09-28T07:08:35.390Z,98570.09
2022-09-28T07:13:49.435Z,98585.16
2022-09-28T07:18:51.705Z,98585.91
2022-09-28T07:23:54.275Z,98597.53
2022-09-28T07:28:56.122Z,98603.63
2022-09-28T07:33:58.658Z,98623.75
2022-09-28T07:39:00.139Z,98617.63
2022-09-28T07:44:06.227Z,98624.63
2022-09-28T07:49:11.398Z,98624.84
2022-09-28T07:54:13.953Z,98627.34
2022-09-28T07:59:19.503Z,98635.34
2022-09-28T08:04:21.052Z,98648.41
2022-09-28T08:09:22.523Z,98646.25
2022-09-28T08:14:24.941Z,98650.69
2022-09-28T08:19:27.876Z,98653.25
2022-09-28T08:24:31.522Z,98654.97
2022-09-28T08:29:36.454Z,98675.09
2022-09-28T08:34:39.700Z,98673.50
2022-09-28T08:39:41.120Z,98673.38
2022-09-28T08:44:53.566Z,98678.09
2022-09-28T08:49:56.031Z,98684.41
2022-09-28T08:55:05.866Z,98686.63
2022-09-28T09:00:14.657Z,98693.44
2022-09-28T09:05:20.168Z,98692.63
2022-09-28T09:10:48.146Z,98695.75
2022-09-28T09:16:20.277Z,98699.94
2022-09-28T09:21:41.162Z,98711.41
2022-09-28T09:26:43.572Z,98712.88
2022-09-28T09:31:57.785Z,98712.78
2022-09-28T09:37:25.604Z,98713.38
2022-09-28T09:42:39.241Z,98717.88
2022-09-28T09:47:50.317Z,98722.75
2022-09-28T09:53:03.245Z,98730.69
2022-09-28T09:58:11.111Z,98730.38
2022-09-28T10:03:22.227Z,98727.38
2022-09-28T10:08:25.936Z,98734.22
2022-09-28T10:13:27.389Z,98728.03
2022-09-28T10:18:29.151Z,98731.59
2022-09-28T10:23:34.026Z,98718.28
2022-09-28T10:28:57.010Z,98719.56
2022-09-28T10:33:58.384Z,98717.22
2022-09-28T10:38:59.805Z,98723.00
2022-09-28T10:44:07.068Z,98724.16
2022-09-28T10:49:16.950Z,98722.56
2022-09-28T10:54:29.555Z,98724.22
2022-09-28T10:59:31.495Z,98719.91
2022-09-28T11:04:40.151Z,98719.22
2022-09-28T11:09:45.450Z,98716.09
2022-09-28T11:14:55.558Z,98712.63
2022-09-28T11:19:59.679Z,98714.97
2022-09-28T11:25:16.344Z,98709.09
2022-09-28T11:30:40.864Z,98703.19
2022-09-28T11:36:03.879Z,98710.81
2022-09-28T11:41:29.006Z,98692.72
2022-09-28T11:47:09.899Z,98700.72
2022-09-28T11:52:22.538Z,98703.38
2022-09-28T11:57:34.576Z,98702.97
2022-09-28T12:02:59.333Z,98696.16
2022-09-28T12:08:17.120Z,98702.00
2022-09-28T12:13:26.691Z,98703.78
2022-09-28T12:18:52.795Z,98695.31
2022-09-28T12:24:04.919Z,98685.59
2022-09-28T12:29:14.594Z,98679.34
2022-09-28T12:34:16.830Z,98670.69
2022-09-28T12:39:46.933Z,98672.16
2022-09-28T12:44:55.916Z,98669.78
2022-09-28T12:50:37.541Z,98674.47
2022-09-28T12:55:35.251Z,98668.00
2022-09-28T13:00:51.326Z,98675.53
2022-09-28T13:06:28.399Z,98667.25
2022-09-28T13:11:54.733Z,98664.63
2022-09-28T13:17:09.265Z,98668.72
2022-09-28T13:22:57.130Z,98667.63
2022-09-28T13:28:02.862Z,98670.28
2022-09-28T13:33:07.346Z,98673.22
2022-09-28T13:38:17.797Z,98670.56
2022-09-28T13:43:34.219Z,98671.63
2022-09-28T13:48:53.695Z,98667.94
2022-09-28T13:54:29.158Z,98675.97
2022-09-28T13:59:33.839Z,98674.78
2022-09-28T14:05:26.171Z,98676.91
2022-09-28T14:10:53.637Z,98680.41
2022-09-28T14:16:17.856Z,98686.50
2022-09-28T14:21:25.977Z,98683.47
2022-09-28T14:26:41.951Z,98679.09
2022-09-28T14:31:45.302Z,98687.75
2022-09-28T14:37:07.629Z,98694.31
2022-09-28T14:42:13.424Z,98693.50
2022-09-28T14:47:41.603Z,98694.09
2022-09-28T14:52:47.705Z,98696.13
2022-09-28T14:57:56.652Z,98703.31
2022-09-28T15:03:07.858Z,98695.19
2022-09-28T15:08:13.444Z,98696.47
2022-09-28T15:13:33.305Z,98704.97
2022-09-28T15:18:53.507Z,98701.47
2022-09-28T15:23:55.178Z,98705.66
2022-09-28T15:28:57.182Z,98710.09
2022-09-28T15:34:17.165Z,98704.03
2022-09-28T15:39:24.063Z,98708.72
2022-09-28T15:44:43.014Z,98713.13
2022-09-28T15:49:58.480Z,98716.63
2022-09-28T15:55:02.561Z,98723.03
2022-09-28T16:00:07.805Z,98732.84
2022-09-28T16:05:34.315Z,98738.19
2022-09-28T16:10:37.061Z,98739.34
2022-09-28T16:15:39.509Z,98736.63
2022-09-28T16:20:42.570Z,98732.84
2022-09-28T16:26:02.083Z,98728.91
2022-09-28T16:31:13.030Z,98735.63
2022-09-28T16:36:17.187Z,98738.81
2022-09-28T16:41:26.119Z,98743.34
2022-09-28T16:46:37.582Z,98740.66
2022-09-28T16:51:40.294Z,98748.16
2022-09-28T16:56:41.791Z,98772.13
2022-09-28T17:01:44.004Z,98766.19
2022-09-28T17:06:45.634Z,98777.41
2022-09-28T17:11:47.339Z,98775.56
2022-09-28T17:22:16.704Z,98790.44
2022-09-28T17:27:21.026Z,98792.56
2022-09-28T17:32:22.622Z,98793.53
2022-09-28T17:37:24.183Z,98796.88
2022-09-28T17:42:25.754Z,98797.25
2022-09-28T17:47:29.992Z,98805.16
2022-09-28T17:52:34.969Z,98807.28
2022-09-28T17:57:36.375Z,98811.81
2022-09-28T18:02:38.173Z,98809.75
2022-09-28T18:07:41.416Z,98813.72
2022-09-28T18:12:45.857Z,98817.75
2022-09-28T18:17:47.461Z,98822.81
2022-09-28T18:22:48.932Z,98833.81
2022-09-28T18:27:50.351Z,98831.88
2022-09-28T18:32:51.920Z,98828.16
2022-09-28T18:37:53.734Z,98839.53
2022-09-28T18:42:55.152Z,98837.59
2022-09-28T18:47:57.628Z,98846.72
2022-09-28T18:53:11.444Z,98856.69
2022-09-28T18:58:14.464Z,98856.63
2022-09-28T19:03:16.006Z,98863.94
2022-09-28T19:08:17.735Z,98874.47
2022-09-28T19:13:19.328Z,98873.81
2022-09-28T19:18:22.967Z,98872.97
2022-09-28T19:23:24.801Z,98872.91
2022-09-28T19:28:28.462Z,98879.56
2022-09-28T19:33:29.885Z,98876.94
2022-09-28T19:38:33.139Z,98882.66
2022-09-28T19:43:34.864Z,98882.50
2022-09-28T19:48:36.409Z,98883.16
2022-09-28T19:53:37.930Z,98896.59
2022-09-28T19:58:39.361Z,98899.72
2022-09-28T20:03:40.788Z,98904.81
2022-09-28T20:08:44.778Z,98906.63
2022-09-28T20:13:46.547Z,98912.97
2022-09-28T20:18:50.247Z,98917.38
2022-09-28T20:23:56.510Z,98920.34
2022-09-28T20:28:58.225Z,98914.03
2022-09-28T20:33:59.633Z,98904.22
2022-09-28T20:39:02.366Z,98904.63
2022-09-28T20:44:06.559Z,98899.19
2022-09-28T20:49:08.480Z,98908.94
2022-09-28T20:54:09.939Z,98903.44
2022-09-28T20:59:12.078Z,98904.41
2022-09-28T21:04:13.818Z,98908.81
2022-09-28T21:09:15.377Z,98911.50
2022-09-28T21:14:17.219Z,98910.03
2022-09-28T21:19:20.185Z,98908.47
2022-09-28T21:24:21.628Z,98905.25
2022-09-28T21:29:23.015Z,98903.78
2022-09-28T21:34:25.203Z,98902.22
2022-09-28T21:39:26.696Z,98904.81
2022-09-28T21:44:28.109Z,98896.44
2022-09-28T21:49:29.619Z,98899.06
2022-09-28T21:54:31.016Z,98889.91
2022-09-28T21:59:32.457Z,98903.97
2022-09-28T22:04:33.935Z,98902.56
2022-09-28T22:09:35.636Z,98899.31
2022-09-28T22:14:37.109Z,98908.41
2022-09-28T22:19:38.575Z,98908.91
2022-09-28T22:24:40.057Z,98914.50
2022-09-28T22:29:42.363Z,98910.03
2022-09-28T22:34:43.794Z,98907.41
2022-09-28T22:39:45.269Z,98908.09
2022-09-28T22:44:46.703Z,98911.94
2022-09-28T22:49:48.206Z,98912.34
2022-09-28T22:54:51.220Z,98913.53
2022-09-28T22:59:52.663Z,98917.06
2022-09-28T23:04:54.060Z,98914.81
2022-09-28T23:09:58.228Z,98910.06
2022-09-28T23:14:59.756Z,98904.50
2022-09-28T23:20:01.524Z,98904.81
2022-09-28T23:25:02.979Z,98927.13
2022-09-28T23:30:04.753Z,98929.97
2022-09-28T23:35:06.856Z,98926.53
2022-09-28T23:40:08.576Z,98923.81
2022-09-28T23:45:10.261Z,98928.72
2022-09-28T23:50:12.053Z,98925.91
2022-09-28T23:55:13.650Z,98922.50
